sensor_id;sensor_type;location;lat;lon;timestamp;P1;durP1;ratioP1;P2;durP2;ratioP2
55455;SDS011;63021;52.836;6.376;2023-09-30T00:01:02;14.63;;;3.92;;
55455;SDS011;63021;52.836;6.376;2023-09-30T00:03:28;10.90;;;3.80;;
55455;SDS011;63021;52.836;6.376;2023-09-30T00:05:54;10.85;;;4.72;;
55455;SDS011;63021;52.836;6.376;2023-09-30T00:08:19;12.73;;;4.75;;
55455;SDS011;63021;52.836;6.376;2023-09-30T00:10:48;13.60;;;4.68;;
55455;SDS011;63021;52.836;6.376;2023-09-30T00:13:18;15.85;;;3.85;;
55455;SDS011;63021;52.836;6.376;2023-09-30T00:15:43;12.10;;;4.05;;
55455;SDS011;63021;52.836;6.376;2023-09-30T00:18:12;13.52;;;3.70;;
55455;SDS011;63021;52.836;6.376;2023-09-30T00:20:38;14.45;;;4.03;;
55455;SDS011;63021;52.836;6.376;2023-09-30T00:23:07;11.52;;;3.75;;
55455;SDS011;63021;52.836;6.376;2023-09-30T00:25:33;14.07;;;3.83;;
55455;SDS011;63021;52.836;6.376;2023-09-30T00:27:59;13.38;;;4.28;;
55455;SDS011;63021;52.836;6.376;2023-09-30T00:30:25;9.98;;;3.97;;
55455;SDS011;63021;52.836;6.376;2023-09-30T00:32:55;12.90;;;4.60;;
55455;SDS011;63021;52.836;6.376;2023-09-30T00:35:21;19.73;;;4.70;;
55455;SDS011;63021;52.836;6.376;2023-09-30T00:37:46;21.85;;;4.75;;
55455;SDS011;63021;52.836;6.376;2023-09-30T00:40:12;17.10;;;6.07;;
55455;SDS011;63021;52.836;6.376;2023-09-30T00:42:38;10.23;;;3.92;;
55455;SDS011;63021;52.836;6.376;2023-09-30T00:45:05;11.98;;;3.97;;
55455;SDS011;63021;52.836;6.376;2023-09-30T00:47:32;14.32;;;3.92;;
55455;SDS011;63021;52.836;6.376;2023-09-30T00:49:59;13.68;;;4.30;;
55455;SDS011;63021;52.836;6.376;2023-09-30T00:52:24;15.07;;;4.18;;
55455;SDS011;63021;52.836;6.376;2023-09-30T00:54:50;13.23;;;4.05;;
55455;SDS011;63021;52.836;6.376;2023-09-30T00:57:19;12.63;;;4.72;;
55455;SDS011;63021;52.836;6.376;2023-09-30T00:59:46;16.48;;;3.95;;
55455;SDS011;63021;52.836;6.376;2023-09-30T01:02:12;14.75;;;4.43;;
55455;SDS011;63021;52.836;6.376;2023-09-30T01:04:37;16.67;;;4.00;;
55455;SDS011;63021;52.836;6.376;2023-09-30T01:07:03;17.63;;;4.70;;
55455;SDS011;63021;52.836;6.376;2023-09-30T01:09:30;14.02;;;4.78;;
55455;SDS011;63021;52.836;6.376;2023-09-30T01:11:55;13.18;;;5.20;;
55455;SDS011;63021;52.836;6.376;2023-09-30T01:14:25;16.98;;;5.90;;
55455;SDS011;63021;52.836;6.376;2023-09-30T01:16:54;20.88;;;4.45;;
55455;SDS011;63021;52.836;6.376;2023-09-30T01:19:23;16.92;;;4.53;;
55455;SDS011;63021;52.836;6.376;2023-09-30T01:22:08;14.32;;;5.10;;
55455;SDS011;63021;52.836;6.376;2023-09-30T01:24:41;18.23;;;5.30;;
55455;SDS011;63021;52.836;6.376;2023-09-30T01:27:07;15.15;;;5.40;;
55455;SDS011;63021;52.836;6.376;2023-09-30T01:29:33;13.50;;;4.50;;
55455;SDS011;63021;52.836;6.376;2023-09-30T01:32:00;23.48;;;6.20;;
55455;SDS011;63021;52.836;6.376;2023-09-30T01:34:26;15.68;;;4.63;;
55455;SDS011;63021;52.836;6.376;2023-09-30T01:36:51;11.20;;;5.18;;
55455;SDS011;63021;52.836;6.376;2023-09-30T01:39:17;14.98;;;5.28;;
55455;SDS011;63021;52.836;6.376;2023-09-30T01:41:42;11.95;;;4.80;;
55455;SDS011;63021;52.836;6.376;2023-09-30T01:44:08;14.23;;;5.65;;
55455;SDS011;63021;52.836;6.376;2023-09-30T01:46:34;20.70;;;5.45;;
55455;SDS011;63021;52.836;6.376;2023-09-30T01:49:01;15.43;;;5.90;;
55455;SDS011;63021;52.836;6.376;2023-09-30T01:51:27;16.02;;;5.45;;
55455;SDS011;63021;52.836;6.376;2023-09-30T01:53:53;13.90;;;5.13;;
55455;SDS011;63021;52.836;6.376;2023-09-30T01:56:19;13.82;;;5.90;;
55455;SDS011;63021;52.836;6.376;2023-09-30T01:58:45;14.98;;;5.22;;
55455;SDS011;63021;52.836;6.376;2023-09-30T02:01:10;21.08;;;5.20;;
55455;SDS011;63021;52.836;6.376;2023-09-30T02:03:35;14.65;;;5.30;;
55455;SDS011;63021;52.836;6.376;2023-09-30T02:06:01;16.70;;;4.93;;
55455;SDS011;63021;52.836;6.376;2023-09-30T02:08:26;17.75;;;5.40;;
55455;SDS011;63021;52.836;6.376;2023-09-30T02:10:52;14.70;;;5.10;;
55455;SDS011;63021;52.836;6.376;2023-09-30T02:13:17;17.10;;;6.57;;
55455;SDS011;63021;52.836;6.376;2023-09-30T02:15:43;17.27;;;5.10;;
55455;SDS011;63021;52.836;6.376;2023-09-30T02:18:09;15.68;;;5.65;;
55455;SDS011;63021;52.836;6.376;2023-09-30T02:20:35;14.70;;;5.45;;
55455;SDS011;63021;52.836;6.376;2023-09-30T02:23:08;19.13;;;5.85;;
55455;SDS011;63021;52.836;6.376;2023-09-30T02:25:38;17.42;;;5.07;;
55455;SDS011;63021;52.836;6.376;2023-09-30T02:28:04;13.95;;;5.00;;
55455;SDS011;63021;52.836;6.376;2023-09-30T02:30:31;18.00;;;5.07;;
55455;SDS011;63021;52.836;6.376;2023-09-30T02:32:56;11.95;;;5.20;;
55455;SDS011;63021;52.836;6.376;2023-09-30T02:35:22;17.35;;;6.65;;
55455;SDS011;63021;52.836;6.376;2023-09-30T02:37:48;14.68;;;6.25;;
55455;SDS011;63021;52.836;6.376;2023-09-30T02:40:16;18.65;;;5.68;;
55455;SDS011;63021;52.836;6.376;2023-09-30T02:42:43;14.52;;;5.22;;
55455;SDS011;63021;52.836;6.376;2023-09-30T02:45:11;17.00;;;5.28;;
55455;SDS011;63021;52.836;6.376;2023-09-30T02:47:38;12.25;;;5.40;;
55455;SDS011;63021;52.836;6.376;2023-09-30T02:50:08;13.95;;;4.97;;
55455;SDS011;63021;52.836;6.376;2023-09-30T02:52:37;14.35;;;6.38;;
55455;SDS011;63021;52.836;6.376;2023-09-30T02:55:05;12.80;;;4.80;;
55455;SDS011;63021;52.836;6.376;2023-09-30T02:57:32;19.27;;;7.32;;
55455;SDS011;63021;52.836;6.376;2023-09-30T02:59:58;15.02;;;5.50;;
55455;SDS011;63021;52.836;6.376;2023-09-30T03:02:25;15.98;;;5.50;;
55455;SDS011;63021;52.836;6.376;2023-09-30T03:04:51;13.85;;;4.85;;
55455;SDS011;63021;52.836;6.376;2023-09-30T03:07:18;20.30;;;5.07;;
55455;SDS011;63021;52.836;6.376;2023-09-30T03:09:45;12.15;;;5.07;;
55455;SDS011;63021;52.836;6.376;2023-09-30T03:12:12;18.10;;;4.70;;
55455;SDS011;63021;52.836;6.376;2023-09-30T03:14:39;13.98;;;5.20;;
55455;SDS011;63021;52.836;6.376;2023-09-30T03:17:05;14.35;;;5.18;;
55455;SDS011;63021;52.836;6.376;2023-09-30T03:19:30;14.85;;;5.25;;
55455;SDS011;63021;52.836;6.376;2023-09-30T03:21:55;21.23;;;5.80;;
55455;SDS011;63021;52.836;6.376;2023-09-30T03:24:21;13.25;;;5.07;;
55455;SDS011;63021;52.836;6.376;2023-09-30T03:26:47;23.63;;;5.95;;
55455;SDS011;63021;52.836;6.376;2023-09-30T03:29:13;14.63;;;6.20;;
55455;SDS011;63021;52.836;6.376;2023-09-30T03:31:39;13.13;;;5.22;;
55455;SDS011;63021;52.836;6.376;2023-09-30T03:34:05;11.50;;;4.65;;
55455;SDS011;63021;52.836;6.376;2023-09-30T03:36:31;10.43;;;4.65;;
55455;SDS011;63021;52.836;6.376;2023-09-30T03:38:57;12.18;;;5.05;;
55455;SDS011;63021;52.836;6.376;2023-09-30T03:41:30;19.15;;;6.13;;
55455;SDS011;63021;52.836;6.376;2023-09-30T03:43:56;16.92;;;5.65;;
55455;SDS011;63021;52.836;6.376;2023-09-30T03:46:22;14.32;;;5.90;;
55455;SDS011;63021;52.836;6.376;2023-09-30T03:48:47;17.05;;;5.78;;
55455;SDS011;63021;52.836;6.376;2023-09-30T03:51:13;14.38;;;5.50;;
55455;SDS011;63021;52.836;6.376;2023-09-30T03:53:45;13.07;;;5.80;;
55455;SDS011;63021;52.836;6.376;2023-09-30T03:56:11;19.25;;;6.18;;
55455;SDS011;63021;52.836;6.376;2023-09-30T03:58:40;16.23;;;5.78;;
55455;SDS011;63021;52.836;6.376;2023-09-30T04:01:08;14.38;;;5.53;;
55455;SDS011;63021;52.836;6.376;2023-09-30T04:03:45;15.70;;;6.82;;
55455;SDS011;63021;52.836;6.376;2023-09-30T04:06:10;17.42;;;6.55;;
55455;SDS011;63021;52.836;6.376;2023-09-30T04:08:37;8.65;;;5.75;;
55455;SDS011;63021;52.836;6.376;2023-09-30T04:11:03;22.95;;;7.93;;
55455;SDS011;63021;52.836;6.376;2023-09-30T04:13:28;15.65;;;7.40;;
55455;SDS011;63021;52.836;6.376;2023-09-30T04:15:58;19.65;;;6.40;;
55455;SDS011;63021;52.836;6.376;2023-09-30T04:18:23;19.00;;;7.45;;
55455;SDS011;63021;52.836;6.376;2023-09-30T04:20:51;16.05;;;7.15;;
55455;SDS011;63021;52.836;6.376;2023-09-30T04:23:17;20.98;;;8.18;;
55455;SDS011;63021;52.836;6.376;2023-09-30T04:25:45;17.05;;;6.35;;
55455;SDS011;63021;52.836;6.376;2023-09-30T04:28:12;19.15;;;6.88;;
55455;SDS011;63021;52.836;6.376;2023-09-30T04:30:39;17.17;;;6.43;;
55455;SDS011;63021;52.836;6.376;2023-09-30T04:33:06;15.52;;;7.28;;
55455;SDS011;63021;52.836;6.376;2023-09-30T04:35:32;14.10;;;7.15;;
55455;SDS011;63021;52.836;6.376;2023-09-30T04:37:57;20.33;;;7.00;;
55455;SDS011;63021;52.836;6.376;2023-09-30T04:40:29;20.15;;;8.77;;
55455;SDS011;63021;52.836;6.376;2023-09-30T04:42:55;20.42;;;7.75;;
55455;SDS011;63021;52.836;6.376;2023-09-30T04:45:23;13.02;;;7.03;;
55455;SDS011;63021;52.836;6.376;2023-09-30T04:47:52;19.52;;;10.48;;
55455;SDS011;63021;52.836;6.376;2023-09-30T04:50:18;16.60;;;8.32;;
55455;SDS011;63021;52.836;6.376;2023-09-30T04:52:46;16.35;;;7.68;;
55455;SDS011;63021;52.836;6.376;2023-09-30T04:55:12;15.48;;;8.77;;
55455;SDS011;63021;52.836;6.376;2023-09-30T04:57:41;17.25;;;8.00;;
55455;SDS011;63021;52.836;6.376;2023-09-30T05:00:10;15.35;;;7.43;;
55455;SDS011;63021;52.836;6.376;2023-09-30T05:02:39;13.85;;;9.00;;
55455;SDS011;63021;52.836;6.376;2023-09-30T05:05:05;18.55;;;8.55;;
55455;SDS011;63021;52.836;6.376;2023-09-30T05:07:31;19.17;;;8.65;;
55455;SDS011;63021;52.836;6.376;2023-09-30T05:09:57;18.38;;;8.93;;
55455;SDS011;63021;52.836;6.376;2023-09-30T05:12:23;20.30;;;8.85;;
55455;SDS011;63021;52.836;6.376;2023-09-30T05:14:48;19.50;;;9.70;;
55455;SDS011;63021;52.836;6.376;2023-09-30T05:17:14;16.98;;;10.13;;
55455;SDS011;63021;52.836;6.376;2023-09-30T05:19:40;15.13;;;9.23;;
55455;SDS011;63021;52.836;6.376;2023-09-30T05:22:06;16.02;;;9.40;;
55455;SDS011;63021;52.836;6.376;2023-09-30T05:24:31;20.27;;;9.70;;
55455;SDS011;63021;52.836;6.376;2023-09-30T05:26:57;16.40;;;10.45;;
55455;SDS011;63021;52.836;6.376;2023-09-30T05:29:22;19.00;;;9.30;;
55455;SDS011;63021;52.836;6.376;2023-09-30T05:31:48;17.05;;;9.68;;
55455;SDS011;63021;52.836;6.376;2023-09-30T05:34:13;20.73;;;10.27;;
55455;SDS011;63021;52.836;6.376;2023-09-30T05:36:39;16.33;;;9.05;;
55455;SDS011;63021;52.836;6.376;2023-09-30T05:39:05;17.23;;;9.10;;
55455;SDS011;63021;52.836;6.376;2023-09-30T05:41:30;21.02;;;9.52;;
55455;SDS011;63021;52.836;6.376;2023-09-30T05:43:56;18.23;;;9.48;;
55455;SDS011;63021;52.836;6.376;2023-09-30T05:46:23;15.00;;;9.15;;
55455;SDS011;63021;52.836;6.376;2023-09-30T05:48:49;20.15;;;9.13;;
55455;SDS011;63021;52.836;6.376;2023-09-30T05:51:15;20.23;;;10.07;;
55455;SDS011;63021;52.836;6.376;2023-09-30T05:53:40;15.13;;;9.15;;
55455;SDS011;63021;52.836;6.376;2023-09-30T05:56:07;12.43;;;9.50;;
55455;SDS011;63021;52.836;6.376;2023-09-30T05:58:33;16.20;;;8.95;;
55455;SDS011;63021;52.836;6.376;2023-09-30T06:00:58;15.10;;;9.20;;
55455;SDS011;63021;52.836;6.376;2023-09-30T06:03:25;16.27;;;9.50;;
55455;SDS011;63021;52.836;6.376;2023-09-30T06:05:54;16.27;;;8.73;;
55455;SDS011;63021;52.836;6.376;2023-09-30T06:08:21;13.07;;;8.63;;
55455;SDS011;63021;52.836;6.376;2023-09-30T06:10:46;18.85;;;9.75;;
55455;SDS011;63021;52.836;6.376;2023-09-30T06:13:12;20.80;;;10.02;;
55455;SDS011;63021;52.836;6.376;2023-09-30T06:15:38;17.55;;;8.68;;
55455;SDS011;63021;52.836;6.376;2023-09-30T06:18:08;17.00;;;8.82;;
55455;SDS011;63021;52.836;6.376;2023-09-30T06:20:37;18.33;;;10.65;;
55455;SDS011;63021;52.836;6.376;2023-09-30T06:23:03;18.90;;;9.95;;
55455;SDS011;63021;52.836;6.376;2023-09-30T06:25:28;18.58;;;9.50;;
55455;SDS011;63021;52.836;6.376;2023-09-30T06:27:55;19.60;;;10.43;;
55455;SDS011;63021;52.836;6.376;2023-09-30T06:30:21;20.45;;;9.50;;
55455;SDS011;63021;52.836;6.376;2023-09-30T06:32:47;17.90;;;9.70;;
55455;SDS011;63021;52.836;6.376;2023-09-30T06:35:13;17.98;;;9.93;;
55455;SDS011;63021;52.836;6.376;2023-09-30T06:37:41;16.58;;;10.35;;
55455;SDS011;63021;52.836;6.376;2023-09-30T06:40:08;17.70;;;10.00;;
55455;SDS011;63021;52.836;6.376;2023-09-30T06:42:36;23.80;;;10.75;;
55455;SDS011;63021;52.836;6.376;2023-09-30T06:45:02;16.60;;;10.88;;
55455;SDS011;63021;52.836;6.376;2023-09-30T06:47:31;20.75;;;10.00;;
55455;SDS011;63021;52.836;6.376;2023-09-30T06:49:59;21.60;;;9.98;;
55455;SDS011;63021;52.836;6.376;2023-09-30T06:52:26;23.45;;;10.55;;
55455;SDS011;63021;52.836;6.376;2023-09-30T06:54:52;21.73;;;10.43;;
55455;SDS011;63021;52.836;6.376;2023-09-30T06:57:18;22.38;;;11.30;;
55455;SDS011;63021;52.836;6.376;2023-09-30T06:59:43;19.25;;;10.48;;
55455;SDS011;63021;52.836;6.376;2023-09-30T07:02:12;17.40;;;10.88;;
55455;SDS011;63021;52.836;6.376;2023-09-30T07:04:40;20.52;;;10.73;;
55455;SDS011;63021;52.836;6.376;2023-09-30T07:07:06;21.75;;;11.50;;
55455;SDS011;63021;52.836;6.376;2023-09-30T07:09:31;19.02;;;10.75;;
55455;SDS011;63021;52.836;6.376;2023-09-30T07:11:56;23.45;;;10.73;;
55455;SDS011;63021;52.836;6.376;2023-09-30T07:14:22;21.75;;;10.60;;
55455;SDS011;63021;52.836;6.376;2023-09-30T07:16:47;19.73;;;10.82;;
55455;SDS011;63021;52.836;6.376;2023-09-30T07:19:13;18.10;;;11.25;;
55455;SDS011;63021;52.836;6.376;2023-09-30T07:21:38;20.88;;;11.55;;
55455;SDS011;63021;52.836;6.376;2023-09-30T07:24:07;18.52;;;11.73;;
55455;SDS011;63021;52.836;6.376;2023-09-30T07:26:32;24.38;;;12.27;;
55455;SDS011;63021;52.836;6.376;2023-09-30T07:28:58;31.65;;;12.82;;
55455;SDS011;63021;52.836;6.376;2023-09-30T07:31:23;23.63;;;12.07;;
55455;SDS011;63021;52.836;6.376;2023-09-30T07:33:50;27.30;;;13.57;;
55455;SDS011;63021;52.836;6.376;2023-09-30T07:36:15;22.00;;;13.07;;
55455;SDS011;63021;52.836;6.376;2023-09-30T07:38:41;20.15;;;11.07;;
55455;SDS011;63021;52.836;6.376;2023-09-30T07:41:06;20.67;;;12.25;;
55455;SDS011;63021;52.836;6.376;2023-09-30T07:43:34;19.85;;;12.07;;
55455;SDS011;63021;52.836;6.376;2023-09-30T07:45:59;21.38;;;12.93;;
55455;SDS011;63021;52.836;6.376;2023-09-30T07:48:30;19.92;;;11.70;;
55455;SDS011;63021;52.836;6.376;2023-09-30T07:50:56;22.42;;;11.93;;
55455;SDS011;63021;52.836;6.376;2023-09-30T07:53:21;18.88;;;12.32;;
55455;SDS011;63021;52.836;6.376;2023-09-30T07:55:47;21.02;;;10.80;;
55455;SDS011;63021;52.836;6.376;2023-09-30T07:58:15;26.02;;;12.85;;
55455;SDS011;63021;52.836;6.376;2023-09-30T08:00:46;23.20;;;11.57;;
55455;SDS011;63021;52.836;6.376;2023-09-30T08:03:14;23.40;;;13.60;;
55455;SDS011;63021;52.836;6.376;2023-09-30T08:05:39;17.75;;;11.82;;
55455;SDS011;63021;52.836;6.376;2023-09-30T08:08:05;20.85;;;12.40;;
55455;SDS011;63021;52.836;6.376;2023-09-30T08:10:31;20.55;;;11.80;;
55455;SDS011;63021;52.836;6.376;2023-09-30T08:12:57;22.77;;;13.07;;
55455;SDS011;63021;52.836;6.376;2023-09-30T08:15:23;22.67;;;12.93;;
55455;SDS011;63021;52.836;6.376;2023-09-30T08:17:49;21.88;;;12.40;;
55455;SDS011;63021;52.836;6.376;2023-09-30T08:20:18;21.98;;;12.65;;
55455;SDS011;63021;52.836;6.376;2023-09-30T08:22:44;25.70;;;13.50;;
55455;SDS011;63021;52.836;6.376;2023-09-30T08:25:10;23.17;;;13.18;;
55455;SDS011;63021;52.836;6.376;2023-09-30T08:27:41;20.75;;;13.48;;
55455;SDS011;63021;52.836;6.376;2023-09-30T08:30:14;24.40;;;13.48;;
55455;SDS011;63021;52.836;6.376;2023-09-30T08:32:40;20.02;;;13.60;;
55455;SDS011;63021;52.836;6.376;2023-09-30T08:35:06;30.88;;;13.15;;
55455;SDS011;63021;52.836;6.376;2023-09-30T08:37:32;24.73;;;13.68;;
55455;SDS011;63021;52.836;6.376;2023-09-30T08:39:58;21.05;;;12.43;;
55455;SDS011;63021;52.836;6.376;2023-09-30T08:42:23;28.13;;;13.93;;
55455;SDS011;63021;52.836;6.376;2023-09-30T08:44:51;22.08;;;13.27;;
55455;SDS011;63021;52.836;6.376;2023-09-30T08:47:21;26.65;;;12.82;;
55455;SDS011;63021;52.836;6.376;2023-09-30T08:49:49;22.50;;;12.18;;
55455;SDS011;63021;52.836;6.376;2023-09-30T08:52:21;20.63;;;12.27;;
55455;SDS011;63021;52.836;6.376;2023-09-30T08:54:48;24.38;;;12.38;;
55455;SDS011;63021;52.836;6.376;2023-09-30T08:57:13;21.10;;;11.88;;
55455;SDS011;63021;52.836;6.376;2023-09-30T08:59:42;21.23;;;12.23;;
55455;SDS011;63021;52.836;6.376;2023-09-30T09:02:09;24.67;;;11.88;;
55455;SDS011;63021;52.836;6.376;2023-09-30T09:04:35;21.58;;;11.98;;
55455;SDS011;63021;52.836;6.376;2023-09-30T09:07:03;21.15;;;11.90;;
55455;SDS011;63021;52.836;6.376;2023-09-30T09:09:35;18.10;;;10.77;;
55455;SDS011;63021;52.836;6.376;2023-09-30T09:12:02;22.75;;;11.98;;
55455;SDS011;63021;52.836;6.376;2023-09-30T09:14:38;24.52;;;11.07;;
55455;SDS011;63021;52.836;6.376;2023-09-30T09:17:07;20.40;;;12.00;;
55455;SDS011;63021;52.836;6.376;2023-09-30T09:19:34;23.67;;;13.07;;
55455;SDS011;63021;52.836;6.376;2023-09-30T09:22:00;20.73;;;11.75;;
55455;SDS011;63021;52.836;6.376;2023-09-30T09:24:38;23.38;;;11.63;;
55455;SDS011;63021;52.836;6.376;2023-09-30T09:27:11;18.45;;;10.50;;
55455;SDS011;63021;52.836;6.376;2023-09-30T09:29:41;21.92;;;11.50;;
55455;SDS011;63021;52.836;6.376;2023-09-30T09:32:16;22.90;;;12.02;;
55455;SDS011;63021;52.836;6.376;2023-09-30T09:34:43;23.40;;;12.57;;
55455;SDS011;63021;52.836;6.376;2023-09-30T09:37:28;18.85;;;10.65;;
55455;SDS011;63021;52.836;6.376;2023-09-30T09:39:57;27.60;;;10.95;;
55455;SDS011;63021;52.836;6.376;2023-09-30T09:42:33;14.98;;;9.82;;
55455;SDS011;63021;52.836;6.376;2023-09-30T09:45:00;17.02;;;10.43;;
55455;SDS011;63021;52.836;6.376;2023-09-30T09:47:29;20.02;;;10.75;;
55455;SDS011;63021;52.836;6.376;2023-09-30T09:49:57;23.83;;;10.65;;
55455;SDS011;63021;52.836;6.376;2023-09-30T09:52:23;17.23;;;10.20;;
55455;SDS011;63021;52.836;6.376;2023-09-30T09:54:50;25.05;;;10.25;;
55455;SDS011;63021;52.836;6.376;2023-09-30T09:57:17;17.58;;;9.52;;
55455;SDS011;63021;52.836;6.376;2023-09-30T09:59:46;16.90;;;10.27;;
55455;SDS011;63021;52.836;6.376;2023-09-30T10:02:13;18.00;;;8.57;;
55455;SDS011;63021;52.836;6.376;2023-09-30T10:04:46;15.95;;;7.68;;
55455;SDS011;63021;52.836;6.376;2023-09-30T10:07:14;19.23;;;8.88;;
55455;SDS011;63021;52.836;6.376;2023-09-30T10:12:13;17.45;;;6.93;;
55455;SDS011;63021;52.836;6.376;2023-09-30T10:14:40;16.25;;;6.95;;
55455;SDS011;63021;52.836;6.376;2023-09-30T10:17:07;13.55;;;6.85;;
55455;SDS011;63021;52.836;6.376;2023-09-30T10:19:33;13.48;;;7.38;;
55455;SDS011;63021;52.836;6.376;2023-09-30T10:24:48;15.38;;;6.32;;
55455;SDS011;63021;52.836;6.376;2023-09-30T10:30:15;13.43;;;5.50;;
55455;SDS011;63021;52.836;6.376;2023-09-30T10:35:16;15.27;;;4.72;;
55455;SDS011;63021;52.836;6.376;2023-09-30T10:37:42;14.80;;;4.50;;
55455;SDS011;63021;52.836;6.376;2023-09-30T10:40:43;7.82;;;3.88;;
55455;SDS011;63021;52.836;6.376;2023-09-30T10:43:31;11.02;;;3.97;;
55455;SDS011;63021;52.836;6.376;2023-09-30T10:49:14;12.50;;;3.17;;
55455;SDS011;63021;52.836;6.376;2023-09-30T10:51:43;7.03;;;3.00;;
55455;SDS011;63021;52.836;6.376;2023-09-30T10:54:14;8.20;;;2.50;;
55455;SDS011;63021;52.836;6.376;2023-09-30T10:57:07;12.25;;;3.47;;
55455;SDS011;63021;52.836;6.376;2023-09-30T10:59:45;13.05;;;3.22;;
55455;SDS011;63021;52.836;6.376;2023-09-30T11:02:22;7.50;;;2.40;;
55455;SDS011;63021;52.836;6.376;2023-09-30T11:04:48;9.55;;;2.63;;
55455;SDS011;63021;52.836;6.376;2023-09-30T11:07:18;8.00;;;2.90;;
55455;SDS011;63021;52.836;6.376;2023-09-30T11:09:48;7.70;;;2.42;;
55455;SDS011;63021;52.836;6.376;2023-09-30T11:12:14;12.85;;;2.72;;
55455;SDS011;63021;52.836;6.376;2023-09-30T11:14:40;9.63;;;3.13;;
55455;SDS011;63021;52.836;6.376;2023-09-30T11:17:06;6.53;;;3.05;;
55455;SDS011;63021;52.836;6.376;2023-09-30T11:19:47;6.57;;;2.45;;
55455;SDS011;63021;52.836;6.376;2023-09-30T11:22:13;11.18;;;2.78;;
55455;SDS011;63021;52.836;6.376;2023-09-30T11:24:40;9.10;;;2.00;;
55455;SDS011;63021;52.836;6.376;2023-09-30T11:27:05;7.53;;;1.92;;
55455;SDS011;63021;52.836;6.376;2023-09-30T11:29:31;9.35;;;3.28;;
55455;SDS011;63021;52.836;6.376;2023-09-30T11:31:57;10.63;;;2.60;;
55455;SDS011;63021;52.836;6.376;2023-09-30T11:34:35;12.25;;;2.15;;
55455;SDS011;63021;52.836;6.376;2023-09-30T11:37:02;6.55;;;2.20;;
55455;SDS011;63021;52.836;6.376;2023-09-30T11:39:30;9.48;;;2.30;;
55455;SDS011;63021;52.836;6.376;2023-09-30T11:41:56;4.68;;;1.75;;
55455;SDS011;63021;52.836;6.376;2023-09-30T11:44:28;6.10;;;1.80;;
55455;SDS011;63021;52.836;6.376;2023-09-30T11:46:59;7.40;;;1.98;;
55455;SDS011;63021;52.836;6.376;2023-09-30T11:52:00;4.97;;;1.63;;
55455;SDS011;63021;52.836;6.376;2023-09-30T11:54:30;5.97;;;1.88;;
55455;SDS011;63021;52.836;6.376;2023-09-30T11:56:59;6.93;;;1.88;;
55455;SDS011;63021;52.836;6.376;2023-09-30T11:59:26;6.93;;;2.50;;
55455;SDS011;63021;52.836;6.376;2023-09-30T12:01:51;5.50;;;1.65;;
55455;SDS011;63021;52.836;6.376;2023-09-30T12:04:17;4.53;;;1.70;;
55455;SDS011;63021;52.836;6.376;2023-09-30T12:06:48;5.40;;;1.58;;
55455;SDS011;63021;52.836;6.376;2023-09-30T12:09:14;6.18;;;1.70;;
55455;SDS011;63021;52.836;6.376;2023-09-30T12:11:42;4.10;;;1.60;;
55455;SDS011;63021;52.836;6.376;2023-09-30T12:14:11;6.75;;;1.65;;
55455;SDS011;63021;52.836;6.376;2023-09-30T12:16:37;9.45;;;2.60;;
55455;SDS011;63021;52.836;6.376;2023-09-30T12:19:04;6.30;;;1.50;;
55455;SDS011;63021;52.836;6.376;2023-09-30T12:21:33;11.25;;;2.65;;
55455;SDS011;63021;52.836;6.376;2023-09-30T12:24:01;11.52;;;1.90;;
55455;SDS011;63021;52.836;6.376;2023-09-30T12:26:28;6.13;;;2.00;;
55455;SDS011;63021;52.836;6.376;2023-09-30T12:28:53;6.15;;;1.60;;
55455;SDS011;63021;52.836;6.376;2023-09-30T12:31:20;8.40;;;2.33;;
55455;SDS011;63021;52.836;6.376;2023-09-30T12:33:48;7.93;;;1.65;;
55455;SDS011;63021;52.836;6.376;2023-09-30T12:36:16;5.68;;;1.52;;
55455;SDS011;63021;52.836;6.376;2023-09-30T12:38:43;6.75;;;1.83;;
55455;SDS011;63021;52.836;6.376;2023-09-30T12:41:09;7.88;;;2.63;;
55455;SDS011;63021;52.836;6.376;2023-09-30T12:43:36;6.00;;;1.92;;
55455;SDS011;63021;52.836;6.376;2023-09-30T12:46:05;7.82;;;1.80;;
55455;SDS011;63021;52.836;6.376;2023-09-30T12:48:32;5.75;;;1.52;;
55455;SDS011;63021;52.836;6.376;2023-09-30T12:50:59;6.50;;;1.52;;
55455;SDS011;63021;52.836;6.376;2023-09-30T12:53:24;7.97;;;1.65;;
55455;SDS011;63021;52.836;6.376;2023-09-30T12:55:53;6.65;;;2.53;;
55455;SDS011;63021;52.836;6.376;2023-09-30T12:58:19;5.43;;;1.70;;
55455;SDS011;63021;52.836;6.376;2023-09-30T13:00:44;7.28;;;2.30;;
55455;SDS011;63021;52.836;6.376;2023-09-30T13:03:10;8.25;;;1.17;;
55455;SDS011;63021;52.836;6.376;2023-09-30T13:05:37;3.47;;;1.77;;
55455;SDS011;63021;52.836;6.376;2023-09-30T13:08:03;5.40;;;1.33;;
55455;SDS011;63021;52.836;6.376;2023-09-30T13:10:32;9.38;;;2.03;;
55455;SDS011;63021;52.836;6.376;2023-09-30T13:12:57;3.70;;;1.33;;
55455;SDS011;63021;52.836;6.376;2023-09-30T13:15:28;5.05;;;2.17;;
55455;SDS011;63021;52.836;6.376;2023-09-30T13:17:54;7.18;;;2.33;;
55455;SDS011;63021;52.836;6.376;2023-09-30T13:20:19;6.57;;;1.75;;
55455;SDS011;63021;52.836;6.376;2023-09-30T13:22:45;5.97;;;2.10;;
55455;SDS011;63021;52.836;6.376;2023-09-30T13:25:10;5.88;;;1.55;;
55455;SDS011;63021;52.836;6.376;2023-09-30T13:27:40;6.32;;;2.10;;
55455;SDS011;63021;52.836;6.376;2023-09-30T13:30:07;7.60;;;2.40;;
55455;SDS011;63021;52.836;6.376;2023-09-30T13:32:34;7.10;;;2.00;;
55455;SDS011;63021;52.836;6.376;2023-09-30T13:35:06;8.23;;;2.45;;
55455;SDS011;63021;52.836;6.376;2023-09-30T13:37:32;8.52;;;1.75;;
55455;SDS011;63021;52.836;6.376;2023-09-30T13:40:02;7.18;;;1.58;;
55455;SDS011;63021;52.836;6.376;2023-09-30T13:42:29;7.43;;;2.47;;
55455;SDS011;63021;52.836;6.376;2023-09-30T13:44:58;5.20;;;2.10;;
55455;SDS011;63021;52.836;6.376;2023-09-30T13:47:26;7.82;;;2.17;;
55455;SDS011;63021;52.836;6.376;2023-09-30T13:49:52;8.80;;;1.95;;
55455;SDS011;63021;52.836;6.376;2023-09-30T13:52:17;7.30;;;1.55;;
55455;SDS011;63021;52.836;6.376;2023-09-30T13:54:43;6.30;;;2.17;;
55455;SDS011;63021;52.836;6.376;2023-09-30T13:57:09;7.22;;;2.45;;
55455;SDS011;63021;52.836;6.376;2023-09-30T13:59:37;6.10;;;2.10;;
55455;SDS011;63021;52.836;6.376;2023-09-30T14:02:02;6.32;;;2.00;;
55455;SDS011;63021;52.836;6.376;2023-09-30T14:04:31;7.22;;;2.03;;
55455;SDS011;63021;52.836;6.376;2023-09-30T14:06:58;4.68;;;1.50;;
55455;SDS011;63021;52.836;6.376;2023-09-30T14:09:25;5.45;;;1.98;;
55455;SDS011;63021;52.836;6.376;2023-09-30T14:11:51;7.53;;;2.10;;
55455;SDS011;63021;52.836;6.376;2023-09-30T14:14:17;5.85;;;2.33;;
55455;SDS011;63021;52.836;6.376;2023-09-30T14:16:42;6.68;;;2.08;;
55455;SDS011;63021;52.836;6.376;2023-09-30T14:19:08;7.47;;;1.70;;
55455;SDS011;63021;52.836;6.376;2023-09-30T14:21:33;4.88;;;2.28;;
55455;SDS011;63021;52.836;6.376;2023-09-30T14:23:58;4.28;;;1.52;;
55455;SDS011;63021;52.836;6.376;2023-09-30T14:26:24;4.88;;;1.50;;
55455;SDS011;63021;52.836;6.376;2023-09-30T14:28:49;6.32;;;1.58;;
55455;SDS011;63021;52.836;6.376;2023-09-30T14:31:15;4.03;;;2.30;;
55455;SDS011;63021;52.836;6.376;2023-09-30T14:33:41;6.28;;;1.70;;
55455;SDS011;63021;52.836;6.376;2023-09-30T14:36:06;5.80;;;1.90;;
55455;SDS011;63021;52.836;6.376;2023-09-30T14:38:32;5.65;;;1.52;;
55455;SDS011;63021;52.836;6.376;2023-09-30T14:40:58;8.02;;;2.35;;
55455;SDS011;63021;52.836;6.376;2023-09-30T14:43:24;6.90;;;1.70;;
55455;SDS011;63021;52.836;6.376;2023-09-30T14:45:49;7.38;;;1.90;;
55455;SDS011;63021;52.836;6.376;2023-09-30T14:48:14;6.00;;;1.50;;
55455;SDS011;63021;52.836;6.376;2023-09-30T14:50:52;9.25;;;2.17;;
55455;SDS011;63021;52.836;6.376;2023-09-30T14:53:17;5.85;;;1.65;;